Berovo, Macedonia
Current Conditions -  °F | °C
As of 12:00 AM on Tuesday 23 Dec 2014 (Local Time) from LWSK Reporting Station
Clear Clear  
Wind Chill: 27°   Ceiling: Unl
Heat Index: 27°   Visibility: 6mi
Dew Point: 25°   Wind: 2mph
Humidity: 93%   Direction: NA
Pressure: 30.36"   Gusts: NA
Location:  41.72°N, 22.86°E
Report Text: LWSK 222200Z VRB02KT CAVOK M03/M04 Q1028 NOSIG
Loading
Personal Weather Stations






























Interactive Weather Map New forecast layout! Learn more

10-Day Weather Forecast

Advertisements
Track Severe Weather on mobile